Time;durP1;ratioP1;P1;durP2;ratioP2;P2;SDS_P1;SDS_P2;PMS_P1;PMS_P2;Temp;Humidity;BMP_temperature;BMP_pressure;BME280_temperature;BME280_humidity;BME280_pressure;Samples;Min_cycle;Max_cycle;Signal;HPM_P1;HPM_P2
2021/11/09 00:00:45;;;;;;;26.75;10.52;;;;;;;;;;5040152;28;20190;-71
2021/11/09 00:03:11;;;;;;;32.10;10.80;;;;;;;;;;5013460;28;20285;-72
2021/11/09 00:06:28;;;;;;;32.53;10.65;;;;;;;;;;5022516;28;20194;-72
2021/11/09 00:08:32;;;;;;;23.63;9.23;;;;;;;;;;5008626;28;20272;-72
2021/11/09 00:10:58;;;;;;;28.25;8.77;;;;;;;;;;5019137;28;20313;-71
2021/11/09 00:13:23;;;;;;;24.00;9.30;;;;;;;;;;5011220;28;20323;-71
2021/11/09 00:15:49;;;;;;;23.43;8.17;;;;;;;;;;5018502;28;20280;-72
2021/11/09 00:18:14;;;;;;;30.83;8.53;;;;;;;;;;5012014;28;20221;-71
2021/11/09 00:20:41;;;;;;;24.50;8.47;;;;;;;;;;5023794;28;20193;-71
2021/11/09 00:23:08;;;;;;;28.67;10.17;;;;;;;;;;5013940;28;20537;-71
2021/11/09 00:25:35;;;;;;;31.17;10.77;;;;;;;;;;5022706;28;20613;-71
2021/11/09 00:28:00;;;;;;;36.13;11.83;;;;;;;;;;5013784;28;20189;-71
2021/11/09 00:30:27;;;;;;;27.57;10.70;;;;;;;;;;5024480;28;20190;-71
2021/11/09 00:32:53;;;;;;;35.33;14.63;;;;;;;;;;5020713;28;20206;-71
2021/11/09 00:35:24;;;;;;;36.63;16.67;;;;;;;;;;5014988;28;20583;-72
2021/11/09 00:37:51;;;;;;;46.77;18.27;;;;;;;;;;5021607;28;20328;-71
2021/11/09 00:40:19;;;;;;;43.33;19.27;;;;;;;;;;5014093;28;20190;-71
2021/11/09 00:42:44;;;;;;;41.33;18.17;;;;;;;;;;5021222;28;20177;-70
2021/11/09 00:45:12;;;;;;;38.53;16.33;;;;;;;;;;5006395;28;20194;-71
2021/11/09 00:47:37;;;;;;;33.50;14.13;;;;;;;;;;5022666;28;20625;-71
2021/11/09 00:50:05;;;;;;;37.43;15.20;;;;;;;;;;5013386;28;20198;-71
2021/11/09 00:52:31;;;;;;;26.17;11.80;;;;;;;;;;5022235;28;20181;-71
2021/11/09 00:54:56;;;;;;;33.07;12.33;;;;;;;;;;5012734;28;21221;-71
2021/11/09 00:57:22;;;;;;;26.83;12.03;;;;;;;;;;5019267;28;20210;-71
2021/11/09 00:59:47;;;;;;;34.90;12.50;;;;;;;;;;5012136;28;21310;-71
2021/11/09 01:02:13;;;;;;;31.33;13.70;;;;;;;;;;5021897;28;20533;-71
2021/11/09 01:04:38;;;;;;;36.97;14.43;;;;;;;;;;5021768;28;20220;-71
2021/11/09 01:07:04;;;;;;;35.53;12.67;;;;;;;;;;5016643;28;20213;-71
2021/11/09 01:09:29;;;;;;;29.97;12.93;;;;;;;;;;5021591;28;20281;-71
2021/11/09 01:11:55;;;;;;;27.63;12.20;;;;;;;;;;5007815;28;20237;-71
2021/11/09 01:14:22;;;;;;;40.27;13.80;;;;;;;;;;5018050;28;20595;-70
2021/11/09 01:16:48;;;;;;;41.87;14.40;;;;;;;;;;5011955;28;20213;-70
2021/11/09 01:19:15;;;;;;;35.17;14.47;;;;;;;;;;5020797;28;20228;-70
2021/11/09 01:21:42;;;;;;;35.10;14.27;;;;;;;;;;5011965;28;20552;-70
2021/11/09 01:24:09;;;;;;;41.57;13.63;;;;;;;;;;5017345;28;20197;-70
2021/11/09 01:26:34;;;;;;;35.07;14.27;;;;;;;;;;5013126;28;23254;-70
2021/11/09 01:29:06;;;;;;;29.83;14.63;;;;;;;;;;5017770;28;20189;-70
2021/11/09 01:31:32;;;;;;;42.23;15.13;;;;;;;;;;5011510;28;21871;-71
2021/11/09 01:33:58;;;;;;;37.53;14.70;;;;;;;;;;5019499;28;20200;-70
2021/11/09 01:36:24;;;;;;;41.40;15.20;;;;;;;;;;5020195;28;20186;-70
2021/11/09 01:38:49;;;;;;;37.37;15.07;;;;;;;;;;5010128;28;20748;-70
2021/11/09 01:41:15;;;;;;;36.43;16.53;;;;;;;;;;5019618;28;20205;-70
2021/11/09 01:43:41;;;;;;;39.23;17.07;;;;;;;;;;5011286;28;20201;-70
2021/11/09 01:46:09;;;;;;;43.60;19.60;;;;;;;;;;5020003;28;20194;-70
2021/11/09 01:48:34;;;;;;;40.63;18.97;;;;;;;;;;5006483;28;20194;-70
2021/11/09 01:51:06;;;;;;;47.00;19.10;;;;;;;;;;5020887;28;20249;-70
2021/11/09 01:53:32;;;;;;;38.37;20.03;;;;;;;;;;5008820;28;20219;-70
2021/11/09 01:56:01;;;;;;;36.63;18.73;;;;;;;;;;5019625;28;20340;-70
2021/11/09 01:58:28;;;;;;;46.30;19.50;;;;;;;;;;5010951;28;20216;-70
2021/11/09 02:00:59;;;;;;;48.20;19.03;;;;;;;;;;5020135;28;20186;-70
2021/11/09 02:03:25;;;;;;;44.50;17.63;;;;;;;;;;5006366;28;20202;-70
2021/11/09 02:05:51;;;;;;;47.93;20.40;;;;;;;;;;5019725;28;20221;-70
2021/11/09 02:08:17;;;;;;;53.83;19.50;;;;;;;;;;5010024;28;20192;-70
2021/11/09 02:10:46;;;;;;;40.53;18.47;;;;;;;;;;5016661;28;20669;-70
2021/11/09 02:13:11;;;;;;;49.13;19.43;;;;;;;;;;5017807;28;20182;-70
2021/11/09 02:15:39;;;;;;;39.83;18.57;;;;;;;;;;5008758;28;20667;-70
2021/11/09 02:18:06;;;;;;;46.20;18.70;;;;;;;;;;5017934;28;20204;-70
2021/11/09 02:20:32;;;;;;;46.50;21.70;;;;;;;;;;5007118;28;20724;-70
2021/11/09 02:22:59;;;;;;;58.07;23.77;;;;;;;;;;5020953;28;20197;-70
2021/11/09 02:25:27;;;;;;;54.10;23.60;;;;;;;;;;5014553;28;20594;-70
2021/11/09 02:27:53;;;;;;;50.03;22.90;;;;;;;;;;5022684;28;20317;-70
2021/11/09 02:30:24;;;;;;;52.07;25.67;;;;;;;;;;5013472;28;20357;-70
2021/11/09 02:32:54;;;;;;;63.27;29.60;;;;;;;;;;5023642;28;20513;-70
2021/11/09 02:35:22;;;;;;;55.83;28.47;;;;;;;;;;5012795;28;20192;-70
2021/11/09 02:37:49;;;;;;;69.20;27.27;;;;;;;;;;5022407;28;20244;-70
2021/11/09 02:40:14;;;;;;;49.53;25.00;;;;;;;;;;5011455;28;20676;-70
2021/11/09 02:42:45;;;;;;;50.60;24.03;;;;;;;;;;5022350;28;21029;-70
2021/11/09 02:45:16;;;;;;;60.77;26.17;;;;;;;;;;5015093;28;20193;-70
2021/11/09 02:47:50;;;;;;;65.20;28.43;;;;;;;;;;5022952;28;20190;-70
2021/11/09 02:50:17;;;;;;;44.43;25.47;;;;;;;;;;5022206;28;20178;-70
2021/11/09 02:52:53;;;;;;;55.80;24.80;;;;;;;;;;5011841;28;20186;-70
2021/11/09 02:55:22;;;;;;;61.57;25.67;;;;;;;;;;5020631;28;20174;-70
2021/11/09 03:00:41;;;;;;;53.63;25.50;;;;;;;;;;5020935;28;20284;-70
2021/11/09 03:03:06;;;;;;;54.83;24.43;;;;;;;;;;5013180;28;20721;-70
2021/11/09 03:05:44;;;;;;;52.83;25.87;;;;;;;;;;5021920;28;20214;-70
2021/11/09 03:10:48;;;;;;;55.27;27.40;;;;;;;;;;5021133;28;20198;-69
2021/11/09 03:13:14;;;;;;;47.70;24.03;;;;;;;;;;5011077;28;20201;-70
2021/11/09 03:15:39;;;;;;;56.10;26.33;;;;;;;;;;5020998;28;20189;-70
2021/11/09 03:18:09;;;;;;;56.27;28.33;;;;;;;;;;5012884;28;20198;-70
2021/11/09 03:20:43;;;;;;;58.17;25.03;;;;;;;;;;5019794;28;20195;-70
2021/11/09 03:45:20;;;;;;;56.87;25.17;;;;;;;;;;5010789;28;20201;-70
2021/11/09 03:47:49;;;;;;;61.93;24.90;;;;;;;;;;5019665;28;20190;-70
2021/11/09 03:50:16;;;;;;;63.40;26.00;;;;;;;;;;5008940;28;20198;-70
2021/11/09 03:53:07;;;;;;;57.83;24.40;;;;;;;;;;5018749;28;20321;-70
2021/11/09 03:58:23;;;;;;;55.10;25.87;;;;;;;;;;5019602;28;20225;-70
2021/11/09 04:01:01;;;;;;;57.37;25.10;;;;;;;;;;5010092;28;20197;-70
2021/11/09 04:06:00;;;;;;;56.67;24.63;;;;;;;;;;5012797;28;20218;-71
2021/11/09 04:11:25;;;;;;;55.17;24.30;;;;;;;;;;5011760;28;20233;-71
2021/11/09 04:14:17;;;;;;;57.37;26.07;;;;;;;;;;5017726;28;20691;-70
2021/11/09 04:16:58;;;;;;;56.37;23.97;;;;;;;;;;5009714;28;20197;-70
2021/11/09 04:19:33;;;;;;;55.67;25.17;;;;;;;;;;5018200;28;20285;-70
2021/11/09 04:25:41;;;;;;;51.53;25.03;;;;;;;;;;5020574;28;20284;-70
2021/11/09 04:33:44;;;;;;;58.97;25.87;;;;;;;;;;5000943;28;20217;-70
2021/11/09 04:50:16;;;;;;;56.13;26.33;;;;;;;;;;5016993;28;20213;-70
2021/11/09 05:09:00;;;;;;;57.47;25.50;;;;;;;;;;5008887;28;20284;-70
2021/11/09 05:11:19;;;;;;;62.37;24.37;;;;;;;;;;5018247;28;20229;-70
2021/11/09 05:13:44;;;;;;;56.47;26.33;;;;;;;;;;5010386;28;20193;-70
2021/11/09 05:16:10;;;;;;;61.50;27.37;;;;;;;;;;5016572;28;20854;-70
2021/11/09 05:18:35;;;;;;;58.10;27.43;;;;;;;;;;5009342;28;20233;-70
2021/11/09 05:21:02;;;;;;;69.63;27.77;;;;;;;;;;5014792;28;20203;-70
2021/11/09 05:23:27;;;;;;;69.97;28.07;;;;;;;;;;5018077;28;20248;-70
2021/11/09 05:25:53;;;;;;;63.80;27.63;;;;;;;;;;5007815;28;20190;-70
2021/11/09 05:28:18;;;;;;;65.77;27.80;;;;;;;;;;5015670;28;20294;-70
2021/11/09 05:30:48;;;;;;;65.90;26.53;;;;;;;;;;5012794;28;20619;-70
2021/11/09 05:33:14;;;;;;;59.43;27.30;;;;;;;;;;5016189;28;20182;-70
2021/11/09 05:35:39;;;;;;;74.63;28.10;;;;;;;;;;5005377;28;20190;-70
2021/11/09 05:38:06;;;;;;;74.97;27.63;;;;;;;;;;5017815;28;20276;-70
2021/11/09 05:40:36;;;;;;;66.50;25.77;;;;;;;;;;5007198;28;20197;-70
2021/11/09 05:43:02;;;;;;;54.53;26.00;;;;;;;;;;5018075;28;21097;-70
2021/11/09 05:45:28;;;;;;;58.03;26.20;;;;;;;;;;5008620;28;20202;-70
2021/11/09 05:47:54;;;;;;;59.93;24.33;;;;;;;;;;5018023;28;20178;-70
2021/11/09 05:50:20;;;;;;;66.93;27.60;;;;;;;;;;5005317;28;20255;-70
2021/11/09 05:52:46;;;;;;;65.70;28.70;;;;;;;;;;5015244;28;20270;-70
2021/11/09 05:55:12;;;;;;;59.17;27.47;;;;;;;;;;5015684;28;20186;-70
2021/11/09 05:57:37;;;;;;;72.23;28.40;;;;;;;;;;5008147;28;20244;-70
2021/11/09 06:00:05;;;;;;;72.63;28.03;;;;;;;;;;5015850;28;20244;-70
2021/11/09 06:02:31;;;;;;;63.70;28.33;;;;;;;;;;5009282;28;20217;-70
2021/11/09 06:04:56;;;;;;;72.20;26.30;;;;;;;;;;5018653;28;20634;-70
2021/11/09 06:07:22;;;;;;;73.50;27.23;;;;;;;;;;5007346;28;20665;-70
2021/11/09 06:09:47;;;;;;;69.43;27.23;;;;;;;;;;5016881;28;20281;-70
2021/11/09 06:12:13;;;;;;;66.33;28.73;;;;;;;;;;5004728;28;20226;-70
2021/11/09 06:14:38;;;;;;;64.23;27.30;;;;;;;;;;5016696;28;20370;-70
2021/11/09 06:17:04;;;;;;;55.13;25.13;;;;;;;;;;5003637;28;20221;-70
2021/11/09 06:19:29;;;;;;;62.13;27.57;;;;;;;;;;5013895;28;20210;-70
2021/11/09 06:21:55;;;;;;;63.90;26.70;;;;;;;;;;4317562;28;10000736;-71
2021/11/09 06:24:20;;;;;;;59.97;26.07;;;;;;;;;;5006012;28;20233;-70
2021/11/09 06:26:46;;;;;;;70.50;25.67;;;;;;;;;;5009708;28;20364;-70
2021/11/09 06:29:13;;;;;;;53.67;25.90;;;;;;;;;;5003413;28;20277;-70
2021/11/09 06:31:39;;;;;;;69.60;26.13;;;;;;;;;;5010128;28;20247;-70
2021/11/09 06:34:04;;;;;;;57.63;26.13;;;;;;;;;;5003785;28;20617;-70
2021/11/09 06:36:29;;;;;;;60.93;26.40;;;;;;;;;;5013162;28;20202;-71
2021/11/09 06:38:55;;;;;;;67.40;25.70;;;;;;;;;;5004922;28;20210;-70
2021/11/09 06:41:20;;;;;;;68.63;26.37;;;;;;;;;;5012560;28;20267;-70
2021/11/09 06:43:46;;;;;;;69.03;26.73;;;;;;;;;;5003267;28;20537;-71
2021/11/09 06:46:11;;;;;;;65.40;27.07;;;;;;;;;;5008895;28;20198;-70
2021/11/09 06:48:36;;;;;;;70.60;27.23;;;;;;;;;;5008577;28;20220;-71
2021/11/09 06:51:03;;;;;;;57.40;24.67;;;;;;;;;;5016146;28;20201;-71
2021/11/09 06:53:29;;;;;;;59.33;24.80;;;;;;;;;;5016212;28;20251;-70
2021/11/09 06:55:55;;;;;;;63.53;24.13;;;;;;;;;;5005633;28;21805;-69
2021/11/09 06:58:21;;;;;;;58.50;23.40;;;;;;;;;;5015067;28;20646;-70
2021/11/09 07:00:47;;;;;;;65.83;25.53;;;;;;;;;;5003447;28;20202;-70
2021/11/09 07:03:13;;;;;;;58.90;25.67;;;;;;;;;;4662969;28;10000507;-70
2021/11/09 07:05:38;;;;;;;61.57;24.87;;;;;;;;;;4999821;28;20201;-70
2021/11/09 07:08:04;;;;;;;65.30;24.53;;;;;;;;;;5010883;28;20204;-70
2021/11/09 07:10:29;;;;;;;67.07;24.30;;;;;;;;;;5007236;28;20194;-70
2021/11/09 07:12:55;;;;;;;68.33;26.73;;;;;;;;;;5018224;28;20264;-70
2021/11/09 07:15:20;;;;;;;56.73;25.20;;;;;;;;;;5009198;28;20194;-70
2021/11/09 07:17:47;;;;;;;57.37;24.47;;;;;;;;;;5019629;28;20265;-70
2021/11/09 07:20:16;;;;;;;55.93;25.50;;;;;;;;;;5008923;28;20201;-70
2021/11/09 07:22:42;;;;;;;59.53;24.37;;;;;;;;;;5020277;28;20193;-70
2021/11/09 07:25:11;;;;;;;58.30;24.87;;;;;;;;;;5012339;28;20194;-70
2021/11/09 07:27:38;;;;;;;67.87;24.50;;;;;;;;;;5001591;28;20190;-70
2021/11/09 07:30:05;;;;;;;58.10;23.77;;;;;;;;;;5010752;28;20260;-70
2021/11/09 07:32:30;;;;;;;53.83;24.37;;;;;;;;;;5007928;28;20226;-70
2021/11/09 07:34:56;;;;;;;62.83;25.87;;;;;;;;;;5010778;28;20281;-70
2021/11/09 07:37:22;;;;;;;64.57;26.00;;;;;;;;;;5004961;28;20287;-70
2021/11/09 07:39:47;;;;;;;58.43;24.23;;;;;;;;;;5012230;28;20210;-70
2021/11/09 07:42:14;;;;;;;67.03;24.57;;;;;;;;;;5005026;28;20658;-70
2021/11/09 07:44:39;;;;;;;54.80;23.90;;;;;;;;;;5008697;28;20182;-70
2021/11/09 07:47:05;;;;;;;53.53;22.83;;;;;;;;;;5003590;28;20200;-71
2021/11/09 07:49:30;;;;;;;57.07;22.20;;;;;;;;;;5011290;28;20178;-69
2021/11/09 07:51:56;;;;;;;55.67;21.43;;;;;;;;;;5004723;28;20574;-69
2021/11/09 07:54:25;;;;;;;51.80;22.97;;;;;;;;;;5010526;28;20194;-70
2021/11/09 07:57:00;;;;;;;62.40;22.80;;;;;;;;;;5011448;28;20210;-69
2021/11/09 07:59:31;;;;;;;57.90;21.83;;;;;;;;;;5003862;28;20220;-70
2021/11/09 08:02:09;;;;;;;57.90;23.00;;;;;;;;;;5013346;28;20595;-70
2021/11/09 08:04:42;;;;;;;59.23;22.13;;;;;;;;;;5007283;28;20198;-70
2021/11/09 08:07:18;;;;;;;56.87;21.50;;;;;;;;;;5012329;28;20846;-70
2021/11/09 08:09:43;;;;;;;74.97;23.50;;;;;;;;;;5006078;28;20324;-70
2021/11/09 08:12:09;;;;;;;43.00;20.63;;;;;;;;;;5011856;28;20305;-70
2021/11/09 08:14:35;;;;;;;62.73;23.53;;;;;;;;;;5003750;28;20682;-70
2021/11/09 08:17:01;;;;;;;60.00;21.50;;;;;;;;;;5012997;28;20194;-70
2021/11/09 08:19:27;;;;;;;50.20;21.33;;;;;;;;;;5004039;28;20206;-70
2021/11/09 08:21:54;;;;;;;45.40;21.27;;;;;;;;;;5012076;28;20204;-69
2021/11/09 08:24:20;;;;;;;54.40;21.53;;;;;;;;;;5005141;28;20565;-70
2021/11/09 08:26:47;;;;;;;51.93;21.47;;;;;;;;;;5015828;28;20606;-70
2021/11/09 08:29:13;;;;;;;49.67;21.37;;;;;;;;;;5009885;28;20343;-70
2021/11/09 08:31:46;;;;;;;54.80;22.17;;;;;;;;;;5018811;28;20847;-70
2021/11/09 08:34:14;;;;;;;54.17;20.77;;;;;;;;;;5006803;28;20190;-70
2021/11/09 08:36:43;;;;;;;44.27;18.00;;;;;;;;;;5014257;28;20649;-69
2021/11/09 08:39:10;;;;;;;43.97;18.10;;;;;;;;;;5017639;28;20206;-70
2021/11/09 08:41:42;;;;;;;53.40;19.03;;;;;;;;;;5022171;28;22973;-70
2021/11/09 08:44:16;;;;;;;56.43;18.87;;;;;;;;;;5015920;28;20198;-70
2021/11/09 08:46:45;;;;;;;40.03;17.60;;;;;;;;;;5008209;28;20223;-70
2021/11/09 08:49:13;;;;;;;45.90;18.53;;;;;;;;;;5011807;28;20584;-69
2021/11/09 08:51:40;;;;;;;45.20;17.93;;;;;;;;;;5008772;28;20256;-70
2021/11/09 08:54:20;;;;;;;45.47;18.20;;;;;;;;;;5014754;28;20670;-69
2021/11/09 09:04:57;;;;;;;50.43;18.37;;;;;;;;;;5002259;28;20536;-69
2021/11/09 09:07:25;;;;;;;46.73;19.13;;;;;;;;;;5007750;28;20676;-70
2021/11/09 09:09:51;;;;;;;43.10;17.63;;;;;;;;;;5013855;28;20197;-70
2021/11/09 09:12:17;;;;;;;50.57;17.93;;;;;;;;;;5004702;28;20404;-70
2021/11/09 09:14:42;;;;;;;51.83;17.10;;;;;;;;;;5017553;28;20194;-70
2021/11/09 09:17:08;;;;;;;47.73;18.03;;;;;;;;;;5007242;28;20206;-70
2021/11/09 09:19:42;;;;;;;43.20;16.77;;;;;;;;;;5015643;28;20217;-70
2021/11/09 09:22:13;;;;;;;50.50;18.03;;;;;;;;;;5007063;28;20574;-70
2021/11/09 09:30:34;;;;;;;44.07;17.10;;;;;;;;;;4999615;28;20198;-70
2021/11/09 09:52:14;;;;;;;37.90;15.23;;;;;;;;;;5015287;28;20712;-69
2021/11/09 09:55:14;;;;;;;38.53;14.23;;;;;;;;;;5007386;28;20719;-69
2021/11/09 09:57:37;;;;;;;39.53;14.85;;;;;;;;;;5018308;28;20261;-69
2021/11/09 10:00:04;;;;;;;35.80;14.23;;;;;;;;;;5007086;28;20218;-70
2021/11/09 10:02:30;;;;;;;45.53;15.63;;;;;;;;;;5014433;28;20209;-70
2021/11/09 10:05:01;;;;;;;32.70;13.05;;;;;;;;;;5006299;28;20213;-70
2021/11/09 10:07:31;;;;;;;39.07;15.10;;;;;;;;;;5014809;28;20490;-70
2021/11/09 10:09:57;;;;;;;38.27;15.50;;;;;;;;;;5008020;28;20205;-70
2021/11/09 10:12:34;;;;;;;38.78;14.15;;;;;;;;;;5015190;28;20319;-70
2021/11/09 10:15:19;;;;;;;37.92;13.98;;;;;;;;;;5007031;28;20685;-70
2021/11/09 10:17:48;;;;;;;36.40;12.33;;;;;;;;;;5015481;28;20190;-71
2021/11/09 10:20:18;;;;;;;42.03;13.88;;;;;;;;;;5006594;28;20336;-70
2021/11/09 10:22:47;;;;;;;31.67;13.13;;;;;;;;;;5016105;28;20216;-71
2021/11/09 10:25:16;;;;;;;31.10;12.02;;;;;;;;;;5009027;28;20271;-70
2021/11/09 10:27:45;;;;;;;37.85;12.90;;;;;;;;;;5014137;28;20281;-71
2021/11/09 10:30:15;;;;;;;29.80;11.57;;;;;;;;;;5018124;28;20186;-70
2021/11/09 10:32:40;;;;;;;26.42;11.13;;;;;;;;;;5014527;28;20197;-69
2021/11/09 10:35:09;;;;;;;31.48;11.90;;;;;;;;;;5016749;28;20603;-69
2021/11/09 10:37:38;;;;;;;28.80;10.68;;;;;;;;;;5007819;28;20222;-70
2021/11/09 10:40:16;;;;;;;34.38;11.40;;;;;;;;;;5016135;28;20202;-70
2021/11/09 10:42:44;;;;;;;30.50;11.32;;;;;;;;;;5009676;28;20217;-69
2021/11/09 10:45:13;;;;;;;36.75;11.43;;;;;;;;;;5018476;28;20197;-70
2021/11/09 10:47:48;;;;;;;30.95;11.25;;;;;;;;;;5024893;28;20205;-70
2021/11/09 10:50:27;;;;;;;29.63;11.60;;;;;;;;;;5017780;28;20196;-70
2021/11/09 10:53:13;;;;;;;28.55;11.75;;;;;;;;;;5012338;28;20251;-70
2021/11/09 10:55:51;;;;;;;35.13;11.18;;;;;;;;;;5020821;28;20221;-70
2021/11/09 10:58:39;;;;;;;33.15;11.30;;;;;;;;;;5012041;28;20210;-70
2021/11/09 11:06:19;;;;;;;22.90;8.90;;;;;;;;;;5020489;28;21574;-70
2021/11/09 11:08:47;;;;;;;29.42;10.40;;;;;;;;;;5014479;28;20281;-70
2021/11/09 11:11:23;;;;;;;25.70;9.43;;;;;;;;;;5019632;28;20230;-70
2021/11/09 11:14:07;;;;;;;22.08;9.75;;;;;;;;;;5007511;28;20186;-71
2021/11/09 11:16:59;;;;;;;25.08;9.75;;;;;;;;;;5020971;28;20221;-71
2021/11/09 11:19:26;;;;;;;30.50;9.23;;;;;;;;;;5008463;28;20216;-72
2021/11/09 11:21:52;;;;;;;26.17;8.32;;;;;;;;;;5020121;28;20236;-71
2021/11/09 11:24:18;;;;;;;28.45;9.98;;;;;;;;;;5010099;28;20578;-71
2021/11/09 11:26:46;;;;;;;28.30;9.43;;;;;;;;;;5009196;28;20323;-70
2021/11/09 11:29:16;;;;;;;25.33;9.60;;;;;;;;;;5003863;28;20227;-71
2021/11/09 11:31:42;;;;;;;38.08;9.48;;;;;;;;;;5016208;28;20220;-70
2021/11/09 11:34:07;;;;;;;25.90;9.98;;;;;;;;;;5005473;28;20194;-71
2021/11/09 11:36:33;;;;;;;34.20;10.00;;;;;;;;;;5014342;28;20186;-71
2021/11/09 11:39:02;;;;;;;22.25;9.38;;;;;;;;;;5009190;28;20218;-71
2021/11/09 11:41:34;;;;;;;24.35;8.93;;;;;;;;;;5015438;28;20182;-71
2021/11/09 11:44:02;;;;;;;26.55;9.23;;;;;;;;;;5015316;28;20466;-71
2021/11/09 11:46:34;;;;;;;30.88;9.27;;;;;;;;;;5007390;28;20190;-71
2021/11/09 11:49:19;;;;;;;29.80;9.50;;;;;;;;;;5013143;28;20189;-70
2021/11/09 11:51:44;;;;;;;32.25;9.32;;;;;;;;;;5006940;28;20774;-71
2021/11/09 11:54:10;;;;;;;25.65;8.05;;;;;;;;;;5013713;28;20186;-70
2021/11/09 11:56:38;;;;;;;21.70;8.18;;;;;;;;;;5010946;28;20702;-71
2021/11/09 11:59:25;;;;;;;25.48;7.78;;;;;;;;;;5021732;28;20674;-70
2021/11/09 12:02:07;;;;;;;30.00;9.07;;;;;;;;;;5010901;28;20560;-71
2021/11/09 12:04:35;;;;;;;25.95;7.57;;;;;;;;;;5022736;28;20189;-71
2021/11/09 12:07:08;;;;;;;24.42;8.43;;;;;;;;;;5008292;28;20657;-70
2021/11/09 12:09:38;;;;;;;28.92;7.38;;;;;;;;;;5022660;28;20166;-71
2021/11/09 12:12:19;;;;;;;19.63;6.85;;;;;;;;;;5013458;28;20296;-71
2021/11/09 12:14:59;;;;;;;20.40;7.47;;;;;;;;;;5023366;28;20276;-70
2021/11/09 12:17:38;;;;;;;19.92;7.95;;;;;;;;;;5011107;28;20190;-71
2021/11/09 12:20:15;;;;;;;26.35;8.35;;;;;;;;;;5019355;28;20268;-71
2021/11/09 12:22:52;;;;;;;16.90;8.07;;;;;;;;;;5013105;28;20255;-71
2021/11/09 12:25:32;;;;;;;23.40;7.40;;;;;;;;;;5020906;28;20189;-71
2021/11/09 12:28:10;;;;;;;25.83;8.15;;;;;;;;;;5004128;28;20189;-71
2021/11/09 12:30:40;;;;;;;26.48;8.18;;;;;;;;;;5019434;28;20341;-71
2021/11/09 12:33:15;;;;;;;21.10;7.53;;;;;;;;;;5011231;28;20197;-71
2021/11/09 12:35:47;;;;;;;30.85;7.85;;;;;;;;;;5018254;28;20182;-71
2021/11/09 12:38:36;;;;;;;24.52;8.88;;;;;;;;;;5009299;28;20205;-71
2021/11/09 12:41:11;;;;;;;23.90;7.70;;;;;;;;;;5019188;28;20174;-71
2021/11/09 12:43:50;;;;;;;26.08;7.50;;;;;;;;;;5005008;28;20185;-71
2021/11/09 12:46:23;;;;;;;28.77;8.18;;;;;;;;;;5021974;28;20574;-71
2021/11/09 12:49:04;;;;;;;20.92;7.45;;;;;;;;;;5009910;28;20201;-71
2021/11/09 12:51:35;;;;;;;25.48;7.95;;;;;;;;;;5020938;28;20177;-71
2021/11/09 12:54:06;;;;;;;24.05;7.70;;;;;;;;;;5010669;28;20198;-71
2021/11/09 12:56:45;;;;;;;23.75;8.05;;;;;;;;;;5020456;28;20210;-71
2021/11/09 12:59:24;;;;;;;24.35;7.43;;;;;;;;;;5010791;28;20206;-71
2021/11/09 13:04:22;;;;;;;27.30;7.90;;;;;;;;;;5011390;28;20197;-71
2021/11/09 13:07:20;;;;;;;21.77;7.20;;;;;;;;;;5020679;28;20185;-71
2021/11/09 13:09:54;;;;;;;19.23;6.68;;;;;;;;;;5013001;28;20207;-71
2021/11/09 13:12:32;;;;;;;25.85;7.38;;;;;;;;;;5020116;28;20226;-71
2021/11/09 13:15:01;;;;;;;21.23;6.65;;;;;;;;;;5010316;28;20659;-71
2021/11/09 13:17:41;;;;;;;32.20;7.22;;;;;;;;;;5018544;28;20589;-71
2021/11/09 13:23:18;;;;;;;22.48;7.07;;;;;;;;;;5021110;28;20585;-72
2021/11/09 13:25:50;;;;;;;24.00;7.03;;;;;;;;;;5010025;28;20210;-71
2021/11/09 13:28:33;;;;;;;20.98;6.43;;;;;;;;;;5017289;28;20245;-71
2021/11/09 13:31:02;;;;;;;19.55;6.97;;;;;;;;;;5011256;28;20187;-71
2021/11/09 13:33:29;;;;;;;25.58;7.28;;;;;;;;;;5018489;28;20194;-71
2021/11/09 13:35:55;;;;;;;19.33;6.97;;;;;;;;;;5010608;28;20583;-71
2021/11/09 13:38:27;;;;;;;29.58;8.38;;;;;;;;;;5021057;28;20217;-72
2021/11/09 13:40:57;;;;;;;21.63;7.47;;;;;;;;;;5005586;28;20186;-71
2021/11/09 13:43:25;;;;;;;28.05;7.28;;;;;;;;;;5019659;28;20181;-71
2021/11/09 13:45:59;;;;;;;24.83;7.07;;;;;;;;;;5008834;28;20186;-71
2021/11/09 13:48:26;;;;;;;28.08;7.60;;;;;;;;;;5015196;28;20261;-71
2021/11/09 13:50:55;;;;;;;18.23;6.65;;;;;;;;;;5010581;28;20573;-71
2021/11/09 13:53:26;;;;;;;21.60;7.20;;;;;;;;;;5017996;28;20260;-71
2021/11/09 13:55:52;;;;;;;26.80;7.78;;;;;;;;;;5020121;28;20218;-71
2021/11/09 13:58:18;;;;;;;20.92;7.32;;;;;;;;;;5008837;28;20240;-71
2021/11/09 14:00:47;;;;;;;28.13;7.78;;;;;;;;;;5016921;28;20186;-71
2021/11/09 14:08:39;;;;;;;22.17;6.95;;;;;;;;;;5011119;28;20202;-72
2021/11/09 14:16:39;;;;;;;28.60;7.85;;;;;;;;;;5019339;28;20198;-71
2021/11/09 14:19:11;;;;;;;31.80;6.80;;;;;;;;;;5012816;28;20256;-71
2021/11/09 14:21:43;;;;;;;24.02;6.85;;;;;;;;;;5019032;28;20186;-71
2021/11/09 14:24:18;;;;;;;20.00;6.68;;;;;;;;;;5013018;28;20662;-71
2021/11/09 14:26:46;;;;;;;26.95;6.38;;;;;;;;;;5026674;28;20262;-71
2021/11/09 14:29:33;;;;;;;22.60;6.22;;;;;;;;;;5014611;28;20214;-72
2021/11/09 14:32:07;;;;;;;16.80;6.10;;;;;;;;;;5018833;28;20182;-71
2021/11/09 14:34:34;;;;;;;22.23;6.40;;;;;;;;;;5013215;28;20225;-71
2021/11/09 14:37:09;;;;;;;28.65;6.60;;;;;;;;;;5020216;28;20193;-71
2021/11/09 14:39:41;;;;;;;26.90;5.90;;;;;;;;;;5012586;28;20402;-71
2021/11/09 14:42:26;;;;;;;23.83;6.65;;;;;;;;;;5019603;28;20350;-71
2021/11/09 14:44:54;;;;;;;21.25;5.95;;;;;;;;;;5012043;28;20186;-72
2021/11/09 14:47:20;;;;;;;27.77;5.65;;;;;;;;;;5019681;28;20599;-71
2021/11/09 14:50:07;;;;;;;24.67;6.22;;;;;;;;;;5005974;28;20186;-71
2021/11/09 14:52:35;;;;;;;24.23;6.18;;;;;;;;;;5022133;28;20272;-71
2021/11/09 14:55:17;;;;;;;23.05;6.30;;;;;;;;;;5012931;28;20704;-71
2021/11/09 14:57:43;;;;;;;19.90;5.70;;;;;;;;;;5018443;28;20194;-71
2021/11/09 15:00:09;;;;;;;17.77;5.07;;;;;;;;;;5013808;28;20214;-71
2021/11/09 15:02:34;;;;;;;16.15;5.40;;;;;;;;;;5022788;28;20684;-71
2021/11/09 15:05:00;;;;;;;18.52;5.05;;;;;;;;;;5014267;28;20281;-71
2021/11/09 15:07:30;;;;;;;19.92;5.47;;;;;;;;;;5022042;28;21233;-71
2021/11/09 15:29:12;;;;;;;25.48;6.22;;;;;;;;;;5022543;28;20728;-71
2021/11/09 15:31:59;;;;;;;21.40;5.00;;;;;;;;;;5009342;28;20197;-71
2021/11/09 15:39:37;;;;;;;28.98;5.90;;;;;;;;;;5020266;28;20314;-72
2021/11/09 15:42:03;;;;;;;22.08;5.80;;;;;;;;;;5012534;28;20189;-72
2021/11/09 15:44:29;;;;;;;25.88;6.15;;;;;;;;;;5020187;28;20190;-72
2021/11/09 15:46:55;;;;;;;24.58;5.22;;;;;;;;;;5014703;28;20198;-72
2021/11/09 15:49:27;;;;;;;27.55;6.68;;;;;;;;;;5018224;28;20225;-72
2021/11/09 15:51:54;;;;;;;19.15;5.38;;;;;;;;;;5020109;28;20190;-69
2021/11/09 15:54:19;;;;;;;22.73;5.65;;;;;;;;;;5011727;28;20563;-72
2021/11/09 15:56:45;;;;;;;22.90;6.57;;;;;;;;;;5021212;28;20225;-71
2021/11/09 15:59:11;;;;;;;22.20;6.15;;;;;;;;;;5010218;28;20214;-71
2021/11/09 16:01:40;;;;;;;19.92;5.82;;;;;;;;;;5016594;28;20190;-70
2021/11/09 16:04:09;;;;;;;23.30;6.35;;;;;;;;;;5012247;28;20197;-71
2021/11/09 16:06:36;;;;;;;20.10;5.57;;;;;;;;;;5020622;28;20198;-70
2021/11/09 16:09:03;;;;;;;26.63;6.13;;;;;;;;;;5012876;28;20620;-70
2021/11/09 16:11:32;;;;;;;24.88;6.18;;;;;;;;;;5017031;28;20262;-71
2021/11/09 16:13:58;;;;;;;29.10;6.60;;;;;;;;;;5010212;28;20193;-70
2021/11/09 16:16:23;;;;;;;19.55;6.43;;;;;;;;;;5021427;28;20198;-70
2021/11/09 16:18:48;;;;;;;18.30;6.33;;;;;;;;;;5012040;28;20306;-70
2021/11/09 16:21:14;;;;;;;26.77;7.43;;;;;;;;;;5023434;28;20202;-71
2021/11/09 16:23:39;;;;;;;26.33;5.97;;;;;;;;;;5021977;28;20182;-71
2021/11/09 16:26:05;;;;;;;26.08;6.70;;;;;;;;;;5010930;28;20665;-71
2021/11/09 16:28:30;;;;;;;23.40;6.87;;;;;;;;;;5022406;28;20190;-71
2021/11/09 16:30:56;;;;;;;20.97;6.23;;;;;;;;;;5013612;28;20499;-70
2021/11/09 16:33:28;;;;;;;23.63;6.10;;;;;;;;;;5021850;28;20205;-70
2021/11/09 16:38:32;;;;;;;25.53;6.93;;;;;;;;;;5020923;28;20208;-70
2021/11/09 16:41:00;;;;;;;22.80;6.40;;;;;;;;;;5007641;28;20217;-70
2021/11/09 16:46:15;;;;;;;27.03;7.73;;;;;;;;;;5012718;28;20205;-70
2021/11/09 16:49:07;;;;;;;28.10;8.00;;;;;;;;;;5022974;28;20190;-70
2021/11/09 16:51:38;;;;;;;22.60;7.80;;;;;;;;;;5008294;28;20197;-70
2021/11/09 16:57:03;;;;;;;27.87;8.17;;;;;;;;;;5011960;28;20241;-70
2021/11/09 16:59:46;;;;;;;22.33;7.20;;;;;;;;;;5018852;28;20201;-70
2021/11/09 17:02:22;;;;;;;27.03;7.80;;;;;;;;;;5011548;28;20440;-70
2021/11/09 17:10:22;;;;;;;19.10;7.20;;;;;;;;;;5027703;28;20227;-70
2021/11/09 18:15:08;;;;;;;24.67;8.37;;;;;;;;;;5013136;28;20604;-70
2021/11/09 18:20:18;;;;;;;26.37;7.87;;;;;;;;;;5005667;28;20568;-70
2021/11/09 18:22:50;;;;;;;24.30;8.53;;;;;;;;;;5012240;28;20194;-70
2021/11/09 18:25:17;;;;;;;28.53;7.90;;;;;;;;;;5005301;28;20201;-70
2021/11/09 18:27:45;;;;;;;24.13;8.07;;;;;;;;;;5013443;28;20266;-70